createdAt,value
2023-01-18T00:01:13.634Z,9.66
2023-01-18T00:03:42.264Z,9.94
2023-01-18T00:06:10.281Z,10.96
2023-01-18T00:08:39.106Z,10.53
2023-01-18T00:11:08.478Z,10.13
2023-01-18T00:13:36.416Z,9.44
2023-01-18T00:16:17.864Z,9.89
2023-01-18T00:18:56.241Z,9.91
2023-01-18T00:21:24.738Z,10.17
2023-01-18T00:23:52.776Z,9.93
2023-01-18T00:26:20.617Z,10.17
2023-01-18T00:28:48.515Z,10.69
2023-01-18T00:31:17.941Z,10.70
2023-01-18T00:33:46.571Z,10.25
2023-01-18T00:36:15.000Z,10.34
2023-01-18T00:38:42.754Z,10.23
2023-01-18T00:41:10.502Z,10.83
2023-01-18T00:43:41.304Z,9.80
2023-01-18T00:46:16.543Z,10.25
2023-01-18T00:48:44.487Z,9.94
2023-01-18T00:51:13.803Z,10.81
2023-01-18T00:53:44.290Z,10.90
2023-01-18T00:56:14.004Z,10.78
2023-01-18T00:58:41.890Z,10.52
2023-01-18T01:01:10.236Z,10.78
2023-01-18T01:03:56.471Z,10.45
2023-01-18T01:06:47.558Z,10.63
2023-01-18T01:09:20.753Z,10.71
2023-01-18T01:12:07.604Z,10.96
2023-01-18T01:14:55.435Z,10.84
2023-01-18T01:17:41.769Z,10.69
2023-01-18T01:20:28.763Z,11.08
2023-01-18T01:23:15.129Z,11.22
2023-01-18T01:26:01.517Z,10.96
2023-01-18T01:28:29.313Z,10.83
2023-01-18T01:31:00.590Z,11.03
2023-01-18T01:33:29.320Z,11.59
2023-01-18T01:35:58.061Z,11.31
2023-01-18T01:38:25.814Z,11.90
2023-01-18T01:40:58.100Z,11.93
2023-01-18T01:43:39.338Z,11.38
2023-01-18T01:46:39.018Z,11.21
2023-01-18T01:49:30.000Z,11.40
2023-01-18T01:52:11.617Z,11.62
2023-01-18T01:55:34.941Z,11.73
2023-01-18T01:58:05.478Z,11.94
2023-01-18T02:00:33.311Z,11.79
2023-01-18T02:03:08.063Z,11.57
2023-01-18T02:05:40.271Z,11.79
2023-01-18T02:08:11.518Z,11.70
2023-01-18T02:10:39.520Z,11.85
2023-01-18T02:13:07.460Z,12.05
2023-01-18T02:15:48.334Z,11.42
2023-01-18T02:18:34.865Z,11.76
2023-01-18T02:21:34.324Z,11.71
2023-01-18T02:24:23.991Z,11.66
2023-01-18T02:26:53.865Z,12.10
2023-01-18T02:29:31.203Z,12.00
2023-01-18T02:32:17.827Z,12.94
2023-01-18T02:34:49.251Z,11.73
2023-01-18T02:37:22.952Z,11.41
2023-01-18T02:40:09.559Z,11.43
2023-01-18T02:42:56.136Z,11.40
2023-01-18T02:46:02.682Z,11.20
2023-01-18T02:48:37.516Z,11.25
2023-01-18T02:51:05.589Z,11.77
2023-01-18T02:53:35.498Z,11.52
2023-01-18T02:56:22.301Z,11.33
2023-01-18T02:58:56.061Z,11.12
2023-01-18T03:01:28.737Z,11.21
2023-01-18T03:04:04.197Z,11.12
2023-01-18T03:06:31.974Z,12.13
2023-01-18T03:08:59.639Z,11.70
2023-01-18T03:11:35.416Z,11.22
2023-01-18T03:14:21.907Z,11.79
2023-01-18T03:17:12.224Z,11.68
2023-01-18T03:20:11.099Z,11.16
2023-01-18T03:23:24.979Z,11.85
2023-01-18T03:25:54.940Z,11.98
2023-01-18T03:28:46.801Z,10.92
2023-01-18T03:31:56.132Z,11.82
2023-01-18T03:34:42.717Z,11.79
2023-01-18T03:37:13.755Z,12.21
2023-01-18T03:39:43.958Z,11.34
2023-01-18T03:42:16.887Z,11.54
2023-01-18T03:44:55.181Z,10.78
2023-01-18T03:47:22.897Z,10.96
2023-01-18T03:49:50.612Z,11.23
2023-01-18T03:52:26.323Z,10.75
2023-01-18T03:55:29.274Z,10.62
2023-01-18T03:58:02.583Z,10.65
2023-01-18T04:00:31.443Z,10.75
2023-01-18T04:02:59.789Z,10.83
2023-01-18T04:05:27.708Z,10.97
2023-01-18T04:07:55.401Z,11.28
2023-01-18T04:10:23.152Z,11.16
2023-01-18T04:12:50.867Z,11.46
2023-01-18T04:15:19.504Z,12.06
2023-01-18T04:17:49.817Z,11.48
2023-01-18T04:20:17.693Z,11.95
2023-01-18T04:22:45.378Z,11.91
2023-01-18T04:25:13.147Z,12.48
2023-01-18T04:27:40.889Z,12.08
2023-01-18T04:30:09.258Z,11.20
2023-01-18T04:32:36.949Z,11.42
2023-01-18T04:35:05.002Z,11.19
2023-01-18T04:37:34.057Z,11.52
2023-01-18T04:40:01.768Z,11.60
2023-01-18T04:42:30.468Z,11.03
2023-01-18T04:44:58.532Z,11.33
2023-01-18T04:47:29.104Z,12.01
2023-01-18T04:49:57.731Z,11.55
2023-01-18T04:52:26.808Z,10.66
2023-01-18T04:54:54.594Z,10.78
2023-01-18T04:57:22.355Z,10.73
2023-01-18T04:59:50.062Z,11.32
2023-01-18T05:02:17.861Z,12.11
2023-01-18T05:04:45.578Z,11.60
2023-01-18T05:07:13.411Z,11.68
2023-01-18T05:09:41.135Z,11.67
2023-01-18T05:12:08.961Z,11.42
2023-01-18T05:14:36.682Z,11.55
2023-01-18T05:17:04.402Z,11.29
2023-01-18T05:19:32.155Z,12.19
2023-01-18T05:21:59.920Z,12.95
2023-01-18T05:24:29.775Z,11.84
2023-01-18T05:26:58.116Z,11.98
2023-01-18T05:29:25.823Z,12.34
2023-01-18T05:31:53.605Z,12.07
2023-01-18T05:34:21.343Z,11.83
2023-01-18T05:36:49.121Z,11.27
2023-01-18T05:39:16.795Z,11.10
2023-01-18T05:41:44.566Z,11.04
2023-01-18T05:44:12.289Z,11.96
2023-01-18T05:46:39.992Z,11.35
2023-01-18T05:49:07.717Z,11.86
2023-01-18T05:51:35.615Z,11.72
2023-01-18T05:54:03.409Z,11.14
2023-01-18T05:56:31.206Z,10.85
2023-01-18T05:58:58.964Z,10.49
2023-01-18T06:01:26.804Z,11.06
2023-01-18T06:03:54.514Z,10.48
2023-01-18T06:06:22.284Z,11.10
2023-01-18T06:08:49.977Z,10.96
2023-01-18T06:11:17.706Z,11.15
2023-01-18T06:13:45.430Z,11.33
2023-01-18T06:16:13.253Z,11.87
2023-01-18T06:18:41.492Z,11.49
2023-01-18T06:21:10.856Z,11.69
2023-01-18T06:23:39.704Z,11.55
2023-01-18T06:26:07.412Z,11.27
2023-01-18T06:28:35.195Z,12.28
2023-01-18T06:31:04.921Z,11.50
2023-01-18T06:33:32.732Z,11.81
2023-01-18T06:36:01.473Z,12.13
2023-01-18T06:38:29.828Z,11.38
2023-01-18T06:40:57.885Z,11.80
2023-01-18T06:43:25.669Z,11.63
2023-01-18T06:45:54.763Z,11.89
2023-01-18T06:48:24.187Z,12.14
2023-01-18T06:50:55.103Z,12.01
2023-01-18T06:53:22.826Z,12.16
2023-01-18T06:55:57.368Z,12.00
2023-01-18T06:58:26.181Z,12.46
2023-01-18T07:00:57.959Z,12.52
2023-01-18T07:03:26.547Z,12.89
2023-01-18T07:05:54.794Z,13.52
2023-01-18T07:08:22.722Z,13.11
2023-01-18T07:10:52.530Z,13.67
2023-01-18T07:13:20.814Z,13.61
2023-01-18T07:16:01.104Z,13.35
2023-01-18T07:18:29.673Z,13.47
2023-01-18T07:21:07.116Z,13.97
2023-01-18T07:23:38.769Z,14.06
2023-01-18T07:26:08.634Z,13.20
2023-01-18T07:28:36.481Z,13.78
2023-01-18T07:31:04.801Z,13.31
2023-01-18T07:33:32.534Z,13.60
2023-01-18T07:36:00.302Z,13.51
2023-01-18T07:38:28.088Z,13.60
2023-01-18T07:41:02.948Z,13.82
2023-01-18T07:43:31.738Z,14.46
2023-01-18T07:46:00.116Z,14.79
2023-01-18T07:48:28.003Z,14.31
2023-01-18T07:50:59.785Z,15.05
2023-01-18T07:53:27.910Z,14.33
2023-01-18T07:55:59.250Z,14.75
2023-01-18T07:58:27.031Z,14.96
2023-01-18T08:00:54.752Z,14.81
2023-01-18T08:03:22.548Z,15.17
2023-01-18T08:05:50.250Z,14.77
2023-01-18T08:08:18.521Z,15.22
2023-01-18T08:10:46.292Z,15.84
2023-01-18T08:13:14.042Z,16.04
2023-01-18T08:15:41.791Z,15.41
2023-01-18T08:18:09.664Z,16.49
2023-01-18T08:20:37.359Z,16.09
2023-01-18T08:23:05.173Z,16.17
2023-01-18T08:25:33.533Z,16.59
2023-01-18T08:28:01.776Z,16.62
2023-01-18T08:30:34.132Z,16.48
2023-01-18T08:33:02.220Z,16.03
2023-01-18T08:35:31.674Z,16.13
2023-01-18T08:37:59.934Z,15.08
2023-01-18T08:40:28.114Z,16.00
2023-01-18T08:42:57.789Z,15.44
2023-01-18T08:45:26.022Z,15.52
2023-01-18T08:48:02.494Z,16.44
2023-01-18T08:50:30.673Z,16.45
2023-01-18T08:53:00.144Z,16.10
2023-01-18T08:55:29.681Z,18.08
2023-01-18T08:57:58.849Z,17.67
2023-01-18T09:00:30.219Z,16.50
2023-01-18T09:02:59.236Z,16.34
2023-01-18T09:05:27.514Z,15.56
2023-01-18T09:07:55.659Z,16.00
2023-01-18T09:36:59.791Z,15.82
2023-01-18T09:39:27.684Z,15.58
2023-01-18T09:42:00.035Z,14.91
2023-01-18T09:44:40.134Z,14.67
2023-01-18T09:47:23.080Z,15.06
2023-01-18T09:49:55.393Z,14.90
2023-01-18T09:52:32.470Z,14.72
2023-01-18T10:21:52.247Z,14.24
2023-01-18T10:24:55.317Z,14.18
2023-01-18T10:27:22.983Z,14.08
2023-01-18T10:30:15.234Z,14.03
2023-01-18T10:32:47.855Z,13.95
2023-01-18T10:35:23.755Z,14.00
2023-01-18T10:37:51.603Z,14.08
2023-01-18T10:40:19.281Z,14.35
2023-01-18T10:42:48.455Z,14.37
2023-01-18T10:45:20.335Z,14.40
2023-01-18T10:47:48.801Z,14.33
2023-01-18T10:50:24.669Z,14.33
2023-01-18T10:52:52.331Z,14.32
2023-01-18T10:55:20.211Z,14.33
2023-01-18T10:57:50.031Z,14.20
2023-01-18T11:00:21.392Z,14.25
2023-01-18T11:02:50.641Z,14.23
2023-01-18T11:05:18.466Z,14.33
2023-01-18T11:07:46.223Z,14.52
2023-01-18T11:10:34.096Z,14.41
2023-01-18T11:13:01.992Z,14.18
2023-01-18T11:15:29.855Z,14.19
2023-01-18T11:17:58.080Z,14.26
2023-01-18T11:20:44.565Z,14.45
2023-01-18T11:23:32.871Z,14.20
2023-01-18T11:26:09.178Z,14.00
2023-01-18T11:28:45.306Z,14.27
2023-01-18T11:31:14.787Z,14.72
2023-01-18T11:33:56.238Z,14.19
2023-01-18T11:36:37.912Z,14.38
2023-01-18T11:39:27.677Z,14.19
2023-01-18T11:42:31.572Z,14.15
2023-01-18T11:45:02.031Z,14.05
2023-01-18T11:47:53.700Z,14.14
2023-01-18T11:50:49.099Z,14.32
2023-01-18T11:53:48.628Z,14.01
2023-01-18T11:56:19.376Z,14.07
2023-01-18T11:58:49.573Z,13.97
2023-01-18T12:01:22.950Z,13.65
2023-01-18T12:04:27.564Z,13.73
2023-01-18T12:07:19.923Z,13.67
2023-01-18T12:10:00.844Z,13.81
2023-01-18T12:12:44.730Z,13.64
2023-01-18T12:15:38.827Z,13.74
2023-01-18T12:18:14.217Z,13.77
2023-01-18T12:21:07.294Z,13.98
2023-01-18T12:23:42.350Z,14.16
2023-01-18T12:26:31.996Z,14.34
2023-01-18T12:28:59.611Z,14.87
2023-01-18T12:32:09.312Z,14.56
2023-01-18T12:34:59.011Z,14.35
2023-01-18T12:37:31.107Z,14.00
2023-01-18T12:40:27.012Z,13.93
2023-01-18T12:43:10.123Z,14.13
2023-01-18T12:45:40.530Z,14.12
2023-01-18T12:48:14.280Z,14.25
2023-01-18T12:50:43.617Z,14.14
2023-01-18T12:53:15.242Z,14.45
2023-01-18T12:55:44.491Z,15.02
2023-01-18T12:58:16.405Z,14.47
2023-01-18T13:00:48.757Z,14.30
2023-01-18T13:03:17.987Z,14.35
2023-01-18T13:05:52.959Z,14.24
2023-01-18T13:08:59.604Z,14.33
2023-01-18T13:11:32.515Z,14.26
2023-01-18T13:14:11.612Z,14.44
2023-01-18T13:16:50.518Z,14.75
2023-01-18T13:19:54.560Z,15.10
2023-01-18T13:22:43.619Z,14.84
2023-01-18T13:25:17.026Z,14.73
2023-01-18T13:28:19.627Z,14.86
2023-01-18T13:31:06.515Z,14.40
2023-01-18T13:33:41.822Z,14.25
2023-01-18T13:36:17.335Z,15.01
2023-01-18T13:38:53.458Z,15.16
2023-01-18T13:41:29.347Z,15.01
2023-01-18T13:44:25.618Z,15.48
2023-01-18T13:46:53.339Z,16.18
2023-01-18T13:49:36.106Z,15.10
2023-01-18T13:52:31.702Z,15.14
2023-01-18T13:55:23.995Z,15.73
2023-01-18T13:57:55.446Z,15.01
2023-01-18T14:00:24.651Z,15.11
2023-01-18T14:02:56.681Z,14.91
2023-01-18T14:05:26.239Z,15.45
2023-01-18T14:07:58.530Z,15.10
2023-01-18T14:10:36.383Z,14.82
2023-01-18T14:13:05.600Z,15.05
2023-01-18T14:15:39.291Z,14.66
2023-01-18T14:18:21.971Z,14.81
2023-01-18T14:20:54.392Z,14.86
2023-01-18T14:23:54.781Z,15.70
2023-01-18T14:26:22.574Z,15.51
2023-01-18T14:28:57.299Z,16.03
2023-01-18T14:31:29.072Z,15.11
2023-01-18T14:33:56.968Z,15.61
2023-01-18T14:36:27.338Z,15.56
2023-01-18T14:39:13.287Z,15.99
2023-01-18T14:41:43.344Z,16.14
2023-01-18T14:44:24.222Z,16.60
2023-01-18T14:46:54.001Z,16.94
2023-01-18T14:49:26.194Z,16.34
2023-01-18T14:51:54.501Z,15.90
2023-01-18T14:54:24.675Z,16.14
2023-01-18T14:57:03.099Z,16.10
2023-01-18T14:59:33.648Z,16.32
2023-01-18T15:02:22.616Z,16.80
2023-01-18T15:04:50.426Z,16.80
2023-01-18T15:07:20.489Z,16.40
2023-01-18T15:09:48.303Z,15.38
2023-01-18T15:12:19.267Z,14.98
2023-01-18T15:14:48.176Z,13.93
2023-01-18T15:17:23.829Z,13.33
2023-01-18T15:19:59.726Z,13.13
2023-01-18T15:22:32.530Z,12.97
2023-01-18T15:25:00.246Z,13.28
2023-01-18T15:27:34.148Z,13.47
2023-01-18T15:30:01.912Z,13.52
2023-01-18T15:32:31.185Z,13.61
2023-01-18T15:34:59.195Z,13.58
2023-01-18T15:37:37.561Z,14.02
2023-01-18T15:40:14.337Z,14.16
2023-01-18T15:43:05.165Z,14.33
2023-01-18T15:45:34.192Z,13.63
2023-01-18T15:48:23.068Z,13.68
2023-01-18T15:50:52.576Z,13.43
2023-01-18T15:53:29.206Z,13.59
2023-01-18T15:56:04.880Z,13.71
2023-01-18T15:58:41.499Z,13.65
2023-01-18T16:01:20.378Z,13.85
2023-01-18T16:03:48.098Z,14.62
2023-01-18T16:06:22.604Z,14.79
2023-01-18T16:09:00.486Z,15.21
2023-01-18T16:11:32.209Z,14.99
2023-01-18T16:14:01.421Z,15.24
2023-01-18T16:16:29.257Z,14.99
2023-01-18T16:19:13.083Z,15.21
2023-01-18T16:21:42.579Z,15.35
2023-01-18T16:24:18.197Z,15.52
2023-01-18T16:26:46.030Z,14.98
2023-01-18T16:29:13.724Z,15.01
2023-01-18T16:31:42.909Z,13.81
2023-01-18T16:34:19.957Z,14.48
2023-01-18T16:36:48.440Z,14.83
2023-01-18T16:39:16.136Z,14.11
2023-01-18T16:41:56.300Z,14.50
2023-01-18T16:44:24.049Z,14.78
2023-01-18T16:46:53.904Z,14.55
2023-01-18T16:49:21.674Z,14.27
2023-01-18T16:51:50.612Z,14.36
2023-01-18T16:54:18.869Z,14.44
2023-01-18T16:56:47.509Z,14.18
2023-01-18T16:59:17.572Z,13.82
2023-01-18T17:01:45.873Z,14.32
2023-01-18T17:04:13.962Z,14.19
2023-01-18T17:06:42.430Z,14.01
2023-01-18T17:09:22.832Z,13.41
2023-01-18T17:11:50.676Z,13.60
2023-01-18T17:14:18.753Z,13.52
2023-01-18T17:16:46.736Z,13.54
2023-01-18T17:19:19.146Z,13.20
2023-01-18T17:21:47.872Z,12.88
2023-01-18T17:24:15.951Z,12.37
2023-01-18T17:26:43.851Z,11.67
2023-01-18T17:29:17.899Z,11.69
2023-01-18T17:31:52.141Z,12.04
2023-01-18T17:34:27.980Z,11.94
2023-01-18T17:36:58.266Z,12.01
2023-01-18T17:39:37.404Z,11.86
2023-01-18T17:42:19.197Z,11.78
2023-01-18T17:44:50.912Z,12.13
2023-01-18T17:47:18.679Z,12.37
2023-01-18T17:49:46.334Z,12.91
2023-01-18T17:52:14.073Z,12.69
2023-01-18T17:54:41.759Z,12.47
2023-01-18T17:57:09.513Z,12.98
2023-01-18T17:59:37.426Z,12.92
2023-01-18T18:02:05.254Z,12.96
2023-01-18T18:04:32.973Z,12.97
2023-01-18T18:07:00.785Z,13.29
2023-01-18T18:09:28.724Z,12.62
2023-01-18T18:11:57.320Z,13.02
2023-01-18T18:14:25.577Z,12.81
2023-01-18T18:16:53.300Z,12.74
2023-01-18T18:19:21.138Z,12.78
2023-01-18T18:21:48.944Z,12.49
2023-01-18T18:24:16.745Z,12.99
2023-01-18T18:26:44.465Z,12.79
2023-01-18T18:29:12.264Z,12.31
2023-01-18T18:31:40.031Z,12.52
2023-01-18T18:34:08.734Z,12.63
2023-01-18T18:36:36.771Z,12.67
2023-01-18T18:39:04.955Z,12.69
2023-01-18T18:41:32.742Z,12.44
2023-01-18T18:44:00.634Z,12.42
2023-01-18T18:46:28.490Z,11.97
2023-01-18T18:48:56.649Z,10.11
2023-01-18T18:51:24.866Z,10.48
2023-01-18T18:53:52.668Z,10.71
2023-01-18T18:56:20.752Z,10.70
2023-01-18T18:58:49.037Z,10.79
2023-01-18T19:01:24.618Z,10.84
2023-01-18T19:03:53.123Z,10.90
2023-01-18T19:06:21.272Z,10.89
2023-01-18T19:08:49.378Z,10.48
2023-01-18T19:11:17.113Z,11.17
2023-01-18T19:13:44.906Z,10.89
2023-01-18T19:16:12.733Z,10.20
2023-01-18T19:18:40.583Z,9.91
2023-01-18T19:21:08.744Z,10.04
2023-01-18T19:23:36.511Z,10.12
2023-01-18T19:26:04.215Z,10.09
2023-01-18T19:28:31.947Z,10.66
2023-01-18T19:31:06.232Z,11.12
2023-01-18T19:33:34.072Z,11.13
2023-01-18T19:36:12.672Z,10.14
2023-01-18T19:38:46.182Z,10.56
2023-01-18T19:41:15.001Z,10.63
2023-01-18T19:43:45.729Z,10.61
2023-01-18T19:46:15.401Z,10.71
2023-01-18T19:48:43.164Z,10.71
2023-01-18T19:51:21.844Z,10.74
2023-01-18T19:53:52.308Z,10.61
2023-01-18T19:56:20.653Z,11.36
2023-01-18T19:58:49.989Z,11.60
2023-01-18T20:01:34.683Z,11.65
2023-01-18T20:04:07.254Z,11.33
2023-01-18T20:06:35.315Z,11.20
2023-01-18T20:09:07.423Z,11.27
2023-01-18T20:11:37.679Z,11.41
2023-01-18T20:14:06.980Z,12.10
2023-01-18T20:16:34.749Z,11.69
2023-01-18T20:19:02.623Z,12.42
2023-01-18T20:21:30.307Z,12.68
2023-01-18T20:23:58.063Z,12.92
2023-01-18T20:26:35.781Z,12.77
2023-01-18T20:29:06.936Z,12.71
2023-01-18T20:31:36.263Z,12.36
2023-01-18T20:34:04.677Z,11.93
2023-01-18T20:36:34.731Z,11.69
2023-01-18T20:39:03.809Z,11.57
2023-01-18T20:41:31.492Z,10.49
2023-01-18T20:43:59.439Z,10.27
2023-01-18T20:46:27.144Z,10.46
2023-01-18T20:48:54.856Z,10.75
2023-01-18T20:51:22.660Z,11.40
2023-01-18T20:53:50.411Z,11.05
2023-01-18T20:56:28.870Z,11.24
2023-01-18T20:58:58.104Z,11.31
2023-01-18T21:01:31.611Z,11.46
2023-01-18T21:04:00.481Z,11.20
2023-01-18T21:06:28.257Z,11.44
2023-01-18T21:08:56.094Z,11.59
2023-01-18T21:11:25.492Z,11.42
2023-01-18T21:13:56.881Z,11.31
2023-01-18T21:16:25.633Z,11.30
2023-01-18T21:18:53.972Z,11.20
2023-01-18T21:21:22.219Z,11.35
2023-01-18T21:23:50.012Z,11.91
2023-01-18T21:26:17.977Z,11.90
2023-01-18T21:28:45.743Z,12.02
2023-01-18T21:31:13.435Z,11.67
2023-01-18T21:33:41.172Z,11.65
2023-01-18T21:36:12.114Z,11.84
2023-01-18T21:38:39.878Z,12.55
2023-01-18T21:41:26.130Z,11.94
2023-01-18T21:44:12.892Z,12.26
2023-01-18T21:46:47.213Z,11.81
2023-01-18T21:49:51.993Z,10.97
2023-01-18T21:52:40.158Z,11.55
2023-01-18T21:55:08.439Z,11.39
2023-01-18T21:57:36.669Z,11.43
2023-01-18T22:00:04.978Z,11.75
2023-01-18T22:02:34.915Z,11.83
2023-01-18T22:05:05.937Z,12.18
2023-01-18T22:07:35.133Z,11.52
2023-01-18T22:10:06.101Z,11.31
2023-01-18T22:12:35.827Z,11.74
2023-01-18T22:15:04.823Z,12.04
2023-01-18T22:17:32.582Z,12.00
2023-01-18T22:20:01.687Z,11.72
2023-01-18T22:22:29.551Z,11.16
2023-01-18T22:25:00.028Z,11.10
2023-01-18T22:27:27.985Z,11.25
2023-01-18T22:29:55.820Z,11.09
2023-01-18T22:32:23.585Z,12.15
2023-01-18T22:34:51.317Z,11.42
2023-01-18T22:37:18.986Z,11.83
2023-01-18T22:39:46.753Z,12.14
2023-01-18T22:42:14.454Z,11.84
2023-01-18T22:44:42.338Z,10.92
2023-01-18T22:47:10.028Z,11.66
2023-01-18T22:49:38.020Z,12.39
2023-01-18T22:52:05.716Z,11.99
2023-01-18T22:54:33.407Z,11.77
2023-01-18T22:57:01.086Z,11.76
2023-01-18T22:59:28.933Z,12.19
2023-01-18T23:01:57.505Z,12.79
2023-01-18T23:04:25.323Z,12.52
2023-01-18T23:06:54.646Z,12.46
2023-01-18T23:09:22.504Z,11.90
2023-01-18T23:11:51.614Z,11.75
2023-01-18T23:14:38.246Z,12.17
2023-01-18T23:17:24.711Z,12.20
2023-01-18T23:19:52.424Z,12.36
2023-01-18T23:22:20.127Z,12.36
2023-01-18T23:24:47.882Z,12.44
2023-01-18T23:27:15.645Z,11.59
2023-01-18T23:29:43.433Z,11.86
2023-01-18T23:32:11.173Z,11.17
2023-01-18T23:34:40.857Z,11.71
2023-01-18T23:37:08.548Z,11.46
2023-01-18T23:39:55.187Z,11.26
2023-01-18T23:42:41.511Z,10.89
2023-01-18T23:45:29.114Z,10.93
2023-01-18T23:48:16.015Z,10.84
2023-01-18T23:51:02.275Z,10.15
2023-01-18T23:53:48.550Z,10.97
2023-01-18T23:56:16.313Z,10.78
2023-01-18T23:58:43.974Z,11.14
